sensor_id;sensor_type;location;lat;lon;timestamp;P1;durP1;ratioP1;P2;durP2;ratioP2
22449;SDS011;11392;57.390;-2.468;2022-12-18T00:01:13;4.20;;;3.00;;
22449;SDS011;11392;57.390;-2.468;2022-12-18T00:03:42;4.82;;;3.10;;
22449;SDS011;11392;57.390;-2.468;2022-12-18T00:06:11;4.15;;;2.33;;
22449;SDS011;11392;57.390;-2.468;2022-12-18T00:08:38;3.13;;;2.10;;
22449;SDS011;11392;57.390;-2.468;2022-12-18T00:11:10;3.60;;;3.00;;
22449;SDS011;11392;57.390;-2.468;2022-12-18T00:13:38;5.07;;;3.10;;
22449;SDS011;11392;57.390;-2.468;2022-12-18T00:16:07;4.93;;;3.20;;
22449;SDS011;11392;57.390;-2.468;2022-12-18T00:18:37;5.65;;;3.17;;
22449;SDS011;11392;57.390;-2.468;2022-12-18T00:21:05;3.80;;;3.15;;
22449;SDS011;11392;57.390;-2.468;2022-12-18T00:23:34;8.35;;;3.17;;
22449;SDS011;11392;57.390;-2.468;2022-12-18T00:26:03;4.20;;;3.20;;
22449;SDS011;11392;57.390;-2.468;2022-12-18T00:28:36;5.25;;;3.83;;
22449;SDS011;11392;57.390;-2.468;2022-12-18T00:31:07;4.72;;;3.08;;
22449;SDS011;11392;57.390;-2.468;2022-12-18T00:33:35;8.15;;;4.18;;
22449;SDS011;11392;57.390;-2.468;2022-12-18T00:36:03;4.13;;;3.33;;
22449;SDS011;11392;57.390;-2.468;2022-12-18T00:38:33;6.57;;;3.60;;
22449;SDS011;11392;57.390;-2.468;2022-12-18T00:41:00;7.43;;;4.43;;
22449;SDS011;11392;57.390;-2.468;2022-12-18T00:43:27;5.03;;;3.15;;
22449;SDS011;11392;57.390;-2.468;2022-12-18T00:45:54;5.13;;;3.08;;
22449;SDS011;11392;57.390;-2.468;2022-12-18T00:48:21;3.72;;;2.65;;
22449;SDS011;11392;57.390;-2.468;2022-12-18T00:50:49;2.88;;;2.58;;
22449;SDS011;11392;57.390;-2.468;2022-12-18T00:53:16;5.82;;;2.60;;
22449;SDS011;11392;57.390;-2.468;2022-12-18T00:55:44;3.42;;;2.40;;
22449;SDS011;11392;57.390;-2.468;2022-12-18T00:58:13;3.10;;;2.53;;
22449;SDS011;11392;57.390;-2.468;2022-12-18T01:00:41;3.45;;;2.45;;
22449;SDS011;11392;57.390;-2.468;2022-12-18T01:03:09;3.20;;;2.00;;
22449;SDS011;11392;57.390;-2.468;2022-12-18T01:05:39;4.70;;;1.90;;
22449;SDS011;11392;57.390;-2.468;2022-12-18T01:08:08;2.40;;;2.20;;
22449;SDS011;11392;57.390;-2.468;2022-12-18T01:10:35;3.50;;;2.25;;
22449;SDS011;11392;57.390;-2.468;2022-12-18T01:13:02;3.28;;;2.17;;
22449;SDS011;11392;57.390;-2.468;2022-12-18T01:15:29;2.78;;;2.10;;
22449;SDS011;11392;57.390;-2.468;2022-12-18T01:17:56;3.50;;;2.40;;
22449;SDS011;11392;57.390;-2.468;2022-12-18T01:20:23;3.42;;;2.45;;
22449;SDS011;11392;57.390;-2.468;2022-12-18T01:22:50;4.03;;;2.97;;
22449;SDS011;11392;57.390;-2.468;2022-12-18T01:25:17;3.45;;;2.22;;
22449;SDS011;11392;57.390;-2.468;2022-12-18T01:27:44;4.10;;;2.92;;
22449;SDS011;11392;57.390;-2.468;2022-12-18T01:30:11;5.75;;;4.38;;
22449;SDS011;11392;57.390;-2.468;2022-12-18T01:32:38;5.22;;;3.58;;
22449;SDS011;11392;57.390;-2.468;2022-12-18T01:35:05;3.83;;;3.00;;
22449;SDS011;11392;57.390;-2.468;2022-12-18T01:37:33;5.22;;;3.70;;
22449;SDS011;11392;57.390;-2.468;2022-12-18T01:40:00;4.05;;;3.30;;
22449;SDS011;11392;57.390;-2.468;2022-12-18T01:42:27;3.90;;;3.05;;
22449;SDS011;11392;57.390;-2.468;2022-12-18T01:44:56;3.25;;;2.90;;
22449;SDS011;11392;57.390;-2.468;2022-12-18T01:50:17;4.05;;;2.80;;
22449;SDS011;11392;57.390;-2.468;2022-12-18T01:52:51;4.95;;;3.28;;
22449;SDS011;11392;57.390;-2.468;2022-12-18T01:55:23;5.60;;;3.55;;
22449;SDS011;11392;57.390;-2.468;2022-12-18T01:57:54;4.75;;;3.08;;
22449;SDS011;11392;57.390;-2.468;2022-12-18T02:00:24;5.65;;;3.78;;
22449;SDS011;11392;57.390;-2.468;2022-12-18T02:02:52;4.90;;;3.42;;
22449;SDS011;11392;57.390;-2.468;2022-12-18T02:08:44;6.07;;;3.33;;
22449;SDS011;11392;57.390;-2.468;2022-12-18T02:11:24;4.60;;;3.22;;
22449;SDS011;11392;57.390;-2.468;2022-12-18T02:17:09;4.32;;;3.22;;
22449;SDS011;11392;57.390;-2.468;2022-12-18T02:28:41;4.55;;;3.10;;
22449;SDS011;11392;57.390;-2.468;2022-12-18T02:31:17;4.95;;;3.35;;
22449;SDS011;11392;57.390;-2.468;2022-12-18T02:33:47;4.18;;;3.03;;
22449;SDS011;11392;57.390;-2.468;2022-12-18T02:36:16;3.78;;;2.30;;
22449;SDS011;11392;57.390;-2.468;2022-12-18T02:38:46;4.55;;;2.50;;
22449;SDS011;11392;57.390;-2.468;2022-12-18T02:41:14;3.45;;;2.72;;
22449;SDS011;11392;57.390;-2.468;2022-12-18T02:44:09;4.93;;;3.28;;
22449;SDS011;11392;57.390;-2.468;2022-12-18T02:49:08;3.42;;;2.58;;
22449;SDS011;11392;57.390;-2.468;2022-12-18T02:54:47;3.22;;;2.20;;
22449;SDS011;11392;57.390;-2.468;2022-12-18T03:00:10;2.85;;;2.25;;
22449;SDS011;11392;57.390;-2.468;2022-12-18T03:05:15;5.18;;;2.85;;
22449;SDS011;11392;57.390;-2.468;2022-12-18T03:07:49;5.13;;;3.25;;
22449;SDS011;11392;57.390;-2.468;2022-12-18T03:10:29;5.93;;;3.08;;
22449;SDS011;11392;57.390;-2.468;2022-12-18T03:13:02;6.30;;;3.35;;
22449;SDS011;11392;57.390;-2.468;2022-12-18T03:15:44;3.30;;;2.75;;
22449;SDS011;11392;57.390;-2.468;2022-12-18T03:18:18;2.45;;;2.25;;
22449;SDS011;11392;57.390;-2.468;2022-12-18T03:20:49;4.65;;;3.45;;
22449;SDS011;11392;57.390;-2.468;2022-12-18T03:23:23;6.00;;;3.05;;
22449;SDS011;11392;57.390;-2.468;2022-12-18T03:25:54;3.65;;;2.85;;
22449;SDS011;11392;57.390;-2.468;2022-12-18T03:28:32;4.05;;;3.13;;
22449;SDS011;11392;57.390;-2.468;2022-12-18T03:31:05;7.10;;;3.35;;
22449;SDS011;11392;57.390;-2.468;2022-12-18T03:33:37;7.57;;;3.65;;
22449;SDS011;11392;57.390;-2.468;2022-12-18T03:36:16;6.68;;;3.60;;
22449;SDS011;11392;57.390;-2.468;2022-12-18T03:38:44;4.22;;;3.13;;
22449;SDS011;11392;57.390;-2.468;2022-12-18T03:46:26;4.95;;;3.33;;
22449;SDS011;11392;57.390;-2.468;2022-12-18T03:49:06;5.70;;;3.47;;
22449;SDS011;11392;57.390;-2.468;2022-12-18T03:51:50;5.47;;;3.55;;
22449;SDS011;11392;57.390;-2.468;2022-12-18T03:54:23;5.47;;;3.25;;
22449;SDS011;11392;57.390;-2.468;2022-12-18T03:56:54;5.43;;;3.85;;
22449;SDS011;11392;57.390;-2.468;2022-12-18T03:59:27;4.05;;;3.08;;
22449;SDS011;11392;57.390;-2.468;2022-12-18T04:01:56;6.03;;;3.78;;
22449;SDS011;11392;57.390;-2.468;2022-12-18T04:04:26;3.47;;;2.45;;
22449;SDS011;11392;57.390;-2.468;2022-12-18T04:06:55;6.30;;;4.13;;
22449;SDS011;11392;57.390;-2.468;2022-12-18T04:09:23;4.45;;;3.70;;
22449;SDS011;11392;57.390;-2.468;2022-12-18T04:11:52;6.97;;;4.07;;
22449;SDS011;11392;57.390;-2.468;2022-12-18T04:14:19;6.80;;;3.85;;
22449;SDS011;11392;57.390;-2.468;2022-12-18T04:16:46;6.18;;;3.38;;
22449;SDS011;11392;57.390;-2.468;2022-12-18T04:19:13;5.35;;;2.80;;
22449;SDS011;11392;57.390;-2.468;2022-12-18T04:21:40;7.40;;;4.07;;
22449;SDS011;11392;57.390;-2.468;2022-12-18T04:24:07;7.85;;;4.30;;
22449;SDS011;11392;57.390;-2.468;2022-12-18T04:26:34;5.70;;;3.35;;
22449;SDS011;11392;57.390;-2.468;2022-12-18T04:29:01;4.10;;;2.92;;
22449;SDS011;11392;57.390;-2.468;2022-12-18T04:31:28;4.00;;;3.22;;
22449;SDS011;11392;57.390;-2.468;2022-12-18T04:33:56;4.28;;;3.10;;
22449;SDS011;11392;57.390;-2.468;2022-12-18T04:36:25;4.03;;;2.95;;
22449;SDS011;11392;57.390;-2.468;2022-12-18T04:38:52;5.40;;;3.50;;
22449;SDS011;11392;57.390;-2.468;2022-12-18T04:41:19;5.97;;;3.50;;
22449;SDS011;11392;57.390;-2.468;2022-12-18T04:43:46;5.65;;;3.60;;
22449;SDS011;11392;57.390;-2.468;2022-12-18T04:46:13;4.45;;;3.60;;
22449;SDS011;11392;57.390;-2.468;2022-12-18T04:48:40;16.23;;;4.45;;
22449;SDS011;11392;57.390;-2.468;2022-12-18T04:51:07;6.20;;;3.90;;
22449;SDS011;11392;57.390;-2.468;2022-12-18T04:53:34;6.13;;;3.47;;
22449;SDS011;11392;57.390;-2.468;2022-12-18T04:56:09;5.90;;;4.28;;
22449;SDS011;11392;57.390;-2.468;2022-12-18T04:58:38;25.90;;;5.00;;
22449;SDS011;11392;57.390;-2.468;2022-12-18T05:01:07;73.70;;;7.50;;
22449;SDS011;11392;57.390;-2.468;2022-12-18T05:03:34;10.10;;;3.22;;
22449;SDS011;11392;57.390;-2.468;2022-12-18T05:06:03;9.60;;;3.33;;
22449;SDS011;11392;57.390;-2.468;2022-12-18T05:08:31;16.98;;;4.53;;
22449;SDS011;11392;57.390;-2.468;2022-12-18T05:10:59;25.42;;;4.10;;
22449;SDS011;11392;57.390;-2.468;2022-12-18T05:13:28;4.03;;;2.55;;
22449;SDS011;11392;57.390;-2.468;2022-12-18T05:15:55;19.40;;;3.63;;
22449;SDS011;11392;57.390;-2.468;2022-12-18T05:18:22;5.18;;;3.50;;
22449;SDS011;11392;57.390;-2.468;2022-12-18T05:20:50;15.27;;;3.65;;
22449;SDS011;11392;57.390;-2.468;2022-12-18T05:23:19;13.80;;;3.60;;
22449;SDS011;11392;57.390;-2.468;2022-12-18T05:25:51;38.20;;;5.28;;
22449;SDS011;11392;57.390;-2.468;2022-12-18T05:28:19;17.63;;;3.58;;
22449;SDS011;11392;57.390;-2.468;2022-12-18T05:30:47;49.85;;;5.25;;
22449;SDS011;11392;57.390;-2.468;2022-12-18T05:33:19;34.97;;;4.55;;
22449;SDS011;11392;57.390;-2.468;2022-12-18T05:35:50;109.05;;;8.23;;
22449;SDS011;11392;57.390;-2.468;2022-12-18T05:38:22;25.52;;;3.53;;
22449;SDS011;11392;57.390;-2.468;2022-12-18T05:40:51;54.35;;;5.70;;
22449;SDS011;11392;57.390;-2.468;2022-12-18T05:43:18;19.50;;;3.50;;
22449;SDS011;11392;57.390;-2.468;2022-12-18T05:45:48;10.02;;;3.22;;
22449;SDS011;11392;57.390;-2.468;2022-12-18T05:48:15;27.20;;;4.53;;
22449;SDS011;11392;57.390;-2.468;2022-12-18T05:50:44;24.83;;;4.70;;
22449;SDS011;11392;57.390;-2.468;2022-12-18T05:53:13;15.60;;;4.63;;
22449;SDS011;11392;57.390;-2.468;2022-12-18T05:55:42;25.10;;;4.85;;
22449;SDS011;11392;57.390;-2.468;2022-12-18T05:58:11;12.13;;;4.60;;
22449;SDS011;11392;57.390;-2.468;2022-12-18T06:00:41;9.55;;;4.22;;
22449;SDS011;11392;57.390;-2.468;2022-12-18T06:03:10;9.90;;;4.25;;
22449;SDS011;11392;57.390;-2.468;2022-12-18T06:05:39;8.68;;;4.60;;
22449;SDS011;11392;57.390;-2.468;2022-12-18T06:08:11;11.65;;;4.70;;
22449;SDS011;11392;57.390;-2.468;2022-12-18T06:10:39;5.78;;;3.58;;
22449;SDS011;11392;57.390;-2.468;2022-12-18T06:13:07;5.65;;;3.97;;
22449;SDS011;11392;57.390;-2.468;2022-12-18T06:15:37;4.38;;;3.10;;
22449;SDS011;11392;57.390;-2.468;2022-12-18T06:18:05;3.95;;;3.42;;
22449;SDS011;11392;57.390;-2.468;2022-12-18T06:20:32;5.75;;;3.53;;
22449;SDS011;11392;57.390;-2.468;2022-12-18T06:22:59;4.35;;;3.53;;
22449;SDS011;11392;57.390;-2.468;2022-12-18T06:25:26;6.70;;;4.78;;
22449;SDS011;11392;57.390;-2.468;2022-12-18T06:27:53;6.30;;;3.60;;
22449;SDS011;11392;57.390;-2.468;2022-12-18T06:30:21;4.50;;;3.28;;
22449;SDS011;11392;57.390;-2.468;2022-12-18T06:32:48;5.20;;;3.97;;
22449;SDS011;11392;57.390;-2.468;2022-12-18T06:35:22;6.53;;;3.83;;
22449;SDS011;11392;57.390;-2.468;2022-12-18T06:37:49;5.80;;;3.25;;
22449;SDS011;11392;57.390;-2.468;2022-12-18T06:40:17;9.05;;;5.03;;
22449;SDS011;11392;57.390;-2.468;2022-12-18T06:42:44;4.18;;;3.60;;
22449;SDS011;11392;57.390;-2.468;2022-12-18T06:45:11;5.22;;;3.50;;
22449;SDS011;11392;57.390;-2.468;2022-12-18T06:47:41;6.18;;;5.18;;
22449;SDS011;11392;57.390;-2.468;2022-12-18T06:50:08;8.07;;;4.63;;
22449;SDS011;11392;57.390;-2.468;2022-12-18T06:52:35;8.38;;;5.10;;
22449;SDS011;11392;57.390;-2.468;2022-12-18T06:55:03;8.20;;;4.65;;
22449;SDS011;11392;57.390;-2.468;2022-12-18T06:57:30;7.15;;;4.88;;
22449;SDS011;11392;57.390;-2.468;2022-12-18T06:59:57;5.30;;;3.72;;
22449;SDS011;11392;57.390;-2.468;2022-12-18T07:02:24;6.70;;;4.68;;
22449;SDS011;11392;57.390;-2.468;2022-12-18T07:04:51;6.15;;;4.32;;
22449;SDS011;11392;57.390;-2.468;2022-12-18T07:07:18;4.75;;;3.47;;
22449;SDS011;11392;57.390;-2.468;2022-12-18T07:09:45;5.13;;;3.85;;
22449;SDS011;11392;57.390;-2.468;2022-12-18T07:12:15;6.25;;;4.43;;
22449;SDS011;11392;57.390;-2.468;2022-12-18T07:14:42;8.55;;;4.85;;
22449;SDS011;11392;57.390;-2.468;2022-12-18T07:17:09;7.75;;;4.63;;
22449;SDS011;11392;57.390;-2.468;2022-12-18T07:19:36;4.90;;;3.80;;
22449;SDS011;11392;57.390;-2.468;2022-12-18T07:22:03;6.07;;;3.83;;
22449;SDS011;11392;57.390;-2.468;2022-12-18T07:24:32;5.30;;;3.85;;
22449;SDS011;11392;57.390;-2.468;2022-12-18T07:27:01;4.68;;;3.40;;
22449;SDS011;11392;57.390;-2.468;2022-12-18T07:29:28;4.65;;;2.95;;
22449;SDS011;11392;57.390;-2.468;2022-12-18T07:31:55;4.63;;;3.63;;
22449;SDS011;11392;57.390;-2.468;2022-12-18T07:34:22;7.70;;;4.57;;
22449;SDS011;11392;57.390;-2.468;2022-12-18T07:36:49;3.88;;;3.22;;
22449;SDS011;11392;57.390;-2.468;2022-12-18T07:39:16;5.40;;;3.95;;
22449;SDS011;11392;57.390;-2.468;2022-12-18T07:41:44;5.97;;;4.10;;
22449;SDS011;11392;57.390;-2.468;2022-12-18T07:44:34;6.35;;;4.20;;
22449;SDS011;11392;57.390;-2.468;2022-12-18T07:47:04;7.20;;;4.72;;
22449;SDS011;11392;57.390;-2.468;2022-12-18T07:49:40;5.13;;;3.20;;
22449;SDS011;11392;57.390;-2.468;2022-12-18T07:52:07;7.10;;;4.55;;
22449;SDS011;11392;57.390;-2.468;2022-12-18T07:54:35;5.57;;;3.97;;
22449;SDS011;11392;57.390;-2.468;2022-12-18T07:57:02;6.03;;;3.70;;
22449;SDS011;11392;57.390;-2.468;2022-12-18T07:59:46;5.90;;;3.30;;
22449;SDS011;11392;57.390;-2.468;2022-12-18T08:02:16;7.78;;;4.15;;
22449;SDS011;11392;57.390;-2.468;2022-12-18T08:04:43;5.97;;;4.18;;
22449;SDS011;11392;57.390;-2.468;2022-12-18T08:07:10;8.52;;;5.53;;
22449;SDS011;11392;57.390;-2.468;2022-12-18T08:09:37;5.95;;;4.25;;
22449;SDS011;11392;57.390;-2.468;2022-12-18T08:12:04;7.25;;;4.40;;
22449;SDS011;11392;57.390;-2.468;2022-12-18T08:14:32;8.45;;;5.22;;
22449;SDS011;11392;57.390;-2.468;2022-12-18T08:16:59;9.00;;;4.97;;
22449;SDS011;11392;57.390;-2.468;2022-12-18T08:19:26;8.55;;;5.03;;
22449;SDS011;11392;57.390;-2.468;2022-12-18T08:21:53;8.82;;;5.07;;
22449;SDS011;11392;57.390;-2.468;2022-12-18T08:24:20;5.97;;;4.05;;
22449;SDS011;11392;57.390;-2.468;2022-12-18T08:26:47;7.82;;;4.18;;
22449;SDS011;11392;57.390;-2.468;2022-12-18T08:29:34;6.03;;;4.07;;
22449;SDS011;11392;57.390;-2.468;2022-12-18T08:32:01;7.03;;;4.53;;
22449;SDS011;11392;57.390;-2.468;2022-12-18T08:34:29;6.13;;;4.47;;
22449;SDS011;11392;57.390;-2.468;2022-12-18T08:36:56;5.65;;;4.32;;
22449;SDS011;11392;57.390;-2.468;2022-12-18T08:39:23;5.72;;;3.78;;
22449;SDS011;11392;57.390;-2.468;2022-12-18T08:41:50;10.57;;;6.88;;
22449;SDS011;11392;57.390;-2.468;2022-12-18T08:44:36;9.52;;;6.03;;
22449;SDS011;11392;57.390;-2.468;2022-12-18T08:47:06;8.82;;;6.03;;
22449;SDS011;11392;57.390;-2.468;2022-12-18T08:49:34;6.72;;;4.63;;
22449;SDS011;11392;57.390;-2.468;2022-12-18T08:52:04;6.20;;;3.97;;
22449;SDS011;11392;57.390;-2.468;2022-12-18T08:54:32;5.00;;;3.80;;
22449;SDS011;11392;57.390;-2.468;2022-12-18T08:56:59;5.50;;;3.80;;
22449;SDS011;11392;57.390;-2.468;2022-12-18T08:59:26;5.25;;;3.42;;
22449;SDS011;11392;57.390;-2.468;2022-12-18T09:01:53;9.13;;;3.80;;
22449;SDS011;11392;57.390;-2.468;2022-12-18T09:04:22;4.78;;;3.13;;
22449;SDS011;11392;57.390;-2.468;2022-12-18T09:06:49;7.00;;;4.72;;
22449;SDS011;11392;57.390;-2.468;2022-12-18T09:09:19;7.55;;;5.13;;
22449;SDS011;11392;57.390;-2.468;2022-12-18T09:11:46;8.30;;;3.78;;
22449;SDS011;11392;57.390;-2.468;2022-12-18T09:14:13;6.43;;;3.85;;
22449;SDS011;11392;57.390;-2.468;2022-12-18T09:16:40;3.42;;;2.80;;
22449;SDS011;11392;57.390;-2.468;2022-12-18T09:19:08;6.53;;;3.28;;
22449;SDS011;11392;57.390;-2.468;2022-12-18T09:21:36;6.10;;;3.13;;
22449;SDS011;11392;57.390;-2.468;2022-12-18T09:24:14;7.95;;;4.85;;
22449;SDS011;11392;57.390;-2.468;2022-12-18T09:26:42;5.35;;;4.05;;
22449;SDS011;11392;57.390;-2.468;2022-12-18T09:29:13;7.57;;;4.30;;
22449;SDS011;11392;57.390;-2.468;2022-12-18T09:31:42;8.60;;;5.38;;
22449;SDS011;11392;57.390;-2.468;2022-12-18T09:34:09;9.93;;;5.63;;
22449;SDS011;11392;57.390;-2.468;2022-12-18T09:36:36;7.68;;;5.05;;
22449;SDS011;11392;57.390;-2.468;2022-12-18T09:39:04;12.95;;;7.05;;
22449;SDS011;11392;57.390;-2.468;2022-12-18T09:41:47;9.98;;;6.03;;
22449;SDS011;11392;57.390;-2.468;2022-12-18T09:44:23;7.88;;;5.07;;
22449;SDS011;11392;57.390;-2.468;2022-12-18T09:49:38;8.82;;;4.80;;
22449;SDS011;11392;57.390;-2.468;2022-12-18T09:52:27;9.13;;;5.25;;
22449;SDS011;11392;57.390;-2.468;2022-12-18T09:55:00;6.95;;;4.80;;
22449;SDS011;11392;57.390;-2.468;2022-12-18T09:57:38;9.80;;;4.90;;
22449;SDS011;11392;57.390;-2.468;2022-12-18T10:00:15;10.25;;;6.18;;
22449;SDS011;11392;57.390;-2.468;2022-12-18T10:02:45;10.02;;;5.28;;
22449;SDS011;11392;57.390;-2.468;2022-12-18T10:05:14;7.32;;;4.97;;
22449;SDS011;11392;57.390;-2.468;2022-12-18T10:10:40;8.60;;;4.88;;
22449;SDS011;11392;57.390;-2.468;2022-12-18T10:27:12;9.20;;;5.85;;
22449;SDS011;11392;57.390;-2.468;2022-12-18T10:29:42;9.05;;;5.43;;
22449;SDS011;11392;57.390;-2.468;2022-12-18T10:32:35;7.90;;;5.38;;
22449;SDS011;11392;57.390;-2.468;2022-12-18T10:34:59;9.98;;;6.47;;
22449;SDS011;11392;57.390;-2.468;2022-12-18T10:37:27;9.82;;;6.03;;
22449;SDS011;11392;57.390;-2.468;2022-12-18T10:40:09;9.23;;;6.63;;
22449;SDS011;11392;57.390;-2.468;2022-12-18T10:42:55;9.63;;;6.68;;
22449;SDS011;11392;57.390;-2.468;2022-12-18T10:45:38;10.68;;;6.68;;
22449;SDS011;11392;57.390;-2.468;2022-12-18T10:48:17;12.43;;;8.13;;
22449;SDS011;11392;57.390;-2.468;2022-12-18T10:50:49;9.68;;;6.57;;
22449;SDS011;11392;57.390;-2.468;2022-12-18T10:53:38;10.45;;;7.13;;
22449;SDS011;11392;57.390;-2.468;2022-12-18T10:56:08;9.07;;;6.85;;
22449;SDS011;11392;57.390;-2.468;2022-12-18T10:58:36;10.18;;;6.18;;
22449;SDS011;11392;57.390;-2.468;2022-12-18T11:01:06;10.40;;;7.40;;
22449;SDS011;11392;57.390;-2.468;2022-12-18T11:06:27;11.25;;;8.45;;
22449;SDS011;11392;57.390;-2.468;2022-12-18T11:09:18;15.52;;;9.32;;
22449;SDS011;11392;57.390;-2.468;2022-12-18T11:11:51;16.10;;;10.57;;
22449;SDS011;11392;57.390;-2.468;2022-12-18T11:16:59;16.65;;;11.63;;
22449;SDS011;11392;57.390;-2.468;2022-12-18T11:20:19;17.98;;;10.77;;
22449;SDS011;11392;57.390;-2.468;2022-12-18T11:25:27;22.25;;;12.82;;
22449;SDS011;11392;57.390;-2.468;2022-12-18T11:28:03;15.25;;;10.80;;
22449;SDS011;11392;57.390;-2.468;2022-12-18T11:30:33;15.07;;;10.18;;
22449;SDS011;11392;57.390;-2.468;2022-12-18T11:35:47;16.02;;;9.20;;
22449;SDS011;11392;57.390;-2.468;2022-12-18T11:38:23;13.73;;;10.15;;
22449;SDS011;11392;57.390;-2.468;2022-12-18T11:41:00;9.25;;;7.45;;
22449;SDS011;11392;57.390;-2.468;2022-12-18T11:43:38;11.65;;;8.45;;
22449;SDS011;11392;57.390;-2.468;2022-12-18T11:46:13;12.90;;;8.88;;
22449;SDS011;11392;57.390;-2.468;2022-12-18T11:49:12;11.63;;;8.60;;
22449;SDS011;11392;57.390;-2.468;2022-12-18T11:51:43;14.30;;;9.90;;
22449;SDS011;11392;57.390;-2.468;2022-12-18T11:54:18;13.10;;;10.43;;
22449;SDS011;11392;57.390;-2.468;2022-12-18T12:02:29;18.33;;;10.23;;
22449;SDS011;11392;57.390;-2.468;2022-12-18T12:05:16;17.58;;;9.55;;
22449;SDS011;11392;57.390;-2.468;2022-12-18T12:07:59;16.55;;;9.60;;
22449;SDS011;11392;57.390;-2.468;2022-12-18T12:16:31;13.65;;;6.57;;
22449;SDS011;11392;57.390;-2.468;2022-12-18T12:18:52;12.93;;;6.82;;
22449;SDS011;11392;57.390;-2.468;2022-12-18T12:21:35;12.35;;;6.38;;
22449;SDS011;11392;57.390;-2.468;2022-12-18T12:24:20;15.00;;;5.82;;
22449;SDS011;11392;57.390;-2.468;2022-12-18T12:38:17;9.82;;;5.45;;
22449;SDS011;11392;57.390;-2.468;2022-12-18T12:40:54;12.98;;;6.32;;
22449;SDS011;11392;57.390;-2.468;2022-12-18T12:43:42;11.50;;;5.93;;
22449;SDS011;11392;57.390;-2.468;2022-12-18T12:46:17;13.30;;;5.65;;
22449;SDS011;11392;57.390;-2.468;2022-12-18T12:48:52;17.10;;;4.68;;
22449;SDS011;11392;57.390;-2.468;2022-12-18T12:51:43;6.35;;;4.05;;
22449;SDS011;11392;57.390;-2.468;2022-12-18T12:54:15;6.72;;;3.42;;
22449;SDS011;11392;57.390;-2.468;2022-12-18T13:01:59;10.85;;;3.75;;
22449;SDS011;11392;57.390;-2.468;2022-12-18T13:08:02;17.23;;;3.67;;
22449;SDS011;11392;57.390;-2.468;2022-12-18T13:13:05;7.20;;;2.90;;
22449;SDS011;11392;57.390;-2.468;2022-12-18T13:16:05;10.35;;;2.95;;
22449;SDS011;11392;57.390;-2.468;2022-12-18T13:18:33;8.80;;;2.60;;
22449;SDS011;11392;57.390;-2.468;2022-12-18T13:21:44;8.70;;;2.75;;
22449;SDS011;11392;57.390;-2.468;2022-12-18T13:23:54;8.50;;;3.78;;
22449;SDS011;11392;57.390;-2.468;2022-12-18T13:28:55;9.88;;;2.72;;
22449;SDS011;11392;57.390;-2.468;2022-12-18T13:34:28;8.75;;;2.58;;
22449;SDS011;11392;57.390;-2.468;2022-12-18T13:37:39;10.93;;;3.30;;
22449;SDS011;11392;57.390;-2.468;2022-12-18T13:39:59;16.80;;;3.42;;
22449;SDS011;11392;57.390;-2.468;2022-12-18T13:45:40;8.93;;;4.32;;
22449;SDS011;11392;57.390;-2.468;2022-12-18T13:48:22;11.32;;;3.60;;
22449;SDS011;11392;57.390;-2.468;2022-12-18T13:50:59;12.52;;;3.75;;
22449;SDS011;11392;57.390;-2.468;2022-12-18T13:53:54;14.77;;;4.35;;
22449;SDS011;11392;57.390;-2.468;2022-12-18T13:56:29;13.25;;;4.07;;
22449;SDS011;11392;57.390;-2.468;2022-12-18T14:01:49;11.57;;;4.15;;
22449;SDS011;11392;57.390;-2.468;2022-12-18T14:09:31;7.43;;;3.58;;
22449;SDS011;11392;57.390;-2.468;2022-12-18T14:12:04;12.82;;;4.03;;
22449;SDS011;11392;57.390;-2.468;2022-12-18T14:14:51;13.10;;;5.00;;
22449;SDS011;11392;57.390;-2.468;2022-12-18T14:17:20;15.50;;;4.43;;
22449;SDS011;11392;57.390;-2.468;2022-12-18T14:19:50;13.15;;;4.95;;
22449;SDS011;11392;57.390;-2.468;2022-12-18T14:22:18;13.73;;;6.03;;
22449;SDS011;11392;57.390;-2.468;2022-12-18T14:25:04;13.43;;;5.20;;
22449;SDS011;11392;57.390;-2.468;2022-12-18T14:27:43;16.70;;;4.68;;
22449;SDS011;11392;57.390;-2.468;2022-12-18T14:30:32;11.32;;;5.38;;
22449;SDS011;11392;57.390;-2.468;2022-12-18T14:33:05;16.25;;;5.45;;
22449;SDS011;11392;57.390;-2.468;2022-12-18T14:35:37;13.05;;;5.32;;
22449;SDS011;11392;57.390;-2.468;2022-12-18T14:38:31;14.85;;;6.28;;
22449;SDS011;11392;57.390;-2.468;2022-12-18T14:41:15;15.52;;;5.53;;
22449;SDS011;11392;57.390;-2.468;2022-12-18T14:43:44;22.33;;;7.18;;
22449;SDS011;11392;57.390;-2.468;2022-12-18T14:46:34;10.65;;;5.38;;
22449;SDS011;11392;57.390;-2.468;2022-12-18T14:49:04;16.75;;;7.15;;
22449;SDS011;11392;57.390;-2.468;2022-12-18T14:51:55;12.32;;;6.63;;
22449;SDS011;11392;57.390;-2.468;2022-12-18T14:54:24;15.32;;;6.53;;
22449;SDS011;11392;57.390;-2.468;2022-12-18T14:59:49;14.05;;;6.00;;
22449;SDS011;11392;57.390;-2.468;2022-12-18T15:02:22;15.07;;;6.43;;
22449;SDS011;11392;57.390;-2.468;2022-12-18T15:07:48;16.13;;;5.43;;
22449;SDS011;11392;57.390;-2.468;2022-12-18T15:10:21;10.38;;;6.50;;
22449;SDS011;11392;57.390;-2.468;2022-12-18T15:20:39;12.93;;;5.28;;
22449;SDS011;11392;57.390;-2.468;2022-12-18T15:23:15;12.90;;;5.63;;
22449;SDS011;11392;57.390;-2.468;2022-12-18T15:25:43;12.85;;;4.97;;
22449;SDS011;11392;57.390;-2.468;2022-12-18T15:28:15;15.85;;;6.22;;
22449;SDS011;11392;57.390;-2.468;2022-12-18T15:30:58;10.43;;;4.95;;
22449;SDS011;11392;57.390;-2.468;2022-12-18T15:33:32;11.73;;;4.80;;
22449;SDS011;11392;57.390;-2.468;2022-12-18T15:36:02;12.18;;;6.25;;
22449;SDS011;11392;57.390;-2.468;2022-12-18T15:38:31;12.32;;;4.78;;
22449;SDS011;11392;57.390;-2.468;2022-12-18T15:40:58;13.50;;;4.38;;
22449;SDS011;11392;57.390;-2.468;2022-12-18T15:43:27;12.05;;;4.47;;
22449;SDS011;11392;57.390;-2.468;2022-12-18T15:46:08;9.23;;;4.80;;
22449;SDS011;11392;57.390;-2.468;2022-12-18T15:48:40;10.55;;;4.05;;
22449;SDS011;11392;57.390;-2.468;2022-12-18T15:51:13;14.77;;;3.78;;
22449;SDS011;11392;57.390;-2.468;2022-12-18T15:53:43;11.80;;;4.80;;
22449;SDS011;11392;57.390;-2.468;2022-12-18T15:56:12;12.13;;;3.47;;
22449;SDS011;11392;57.390;-2.468;2022-12-18T15:59:00;11.45;;;3.40;;
22449;SDS011;11392;57.390;-2.468;2022-12-18T16:01:29;12.75;;;3.97;;
22449;SDS011;11392;57.390;-2.468;2022-12-18T16:03:57;13.07;;;3.85;;
22449;SDS011;11392;57.390;-2.468;2022-12-18T16:06:24;9.10;;;3.45;;
22449;SDS011;11392;57.390;-2.468;2022-12-18T16:08:51;9.57;;;3.13;;
22449;SDS011;11392;57.390;-2.468;2022-12-18T16:11:23;13.90;;;4.13;;
22449;SDS011;11392;57.390;-2.468;2022-12-18T16:14:05;12.02;;;3.83;;
22449;SDS011;11392;57.390;-2.468;2022-12-18T16:16:38;8.80;;;3.63;;
22449;SDS011;11392;57.390;-2.468;2022-12-18T16:19:05;13.52;;;3.13;;
22449;SDS011;11392;57.390;-2.468;2022-12-18T16:21:32;13.73;;;4.22;;
22449;SDS011;11392;57.390;-2.468;2022-12-18T16:23:59;9.02;;;3.30;;
22449;SDS011;11392;57.390;-2.468;2022-12-18T16:26:26;7.80;;;3.00;;
22449;SDS011;11392;57.390;-2.468;2022-12-18T16:28:54;11.27;;;3.58;;
22449;SDS011;11392;57.390;-2.468;2022-12-18T16:31:21;12.32;;;3.10;;
22449;SDS011;11392;57.390;-2.468;2022-12-18T16:33:48;11.38;;;3.53;;
22449;SDS011;11392;57.390;-2.468;2022-12-18T16:36:15;11.48;;;2.97;;
22449;SDS011;11392;57.390;-2.468;2022-12-18T16:38:42;7.95;;;3.13;;
22449;SDS011;11392;57.390;-2.468;2022-12-18T16:41:16;11.50;;;3.25;;
22449;SDS011;11392;57.390;-2.468;2022-12-18T16:43:57;11.25;;;3.85;;
22449;SDS011;11392;57.390;-2.468;2022-12-18T16:46:25;10.68;;;3.35;;
22449;SDS011;11392;57.390;-2.468;2022-12-18T16:48:52;11.57;;;3.28;;
22449;SDS011;11392;57.390;-2.468;2022-12-18T16:51:19;11.60;;;3.83;;
22449;SDS011;11392;57.390;-2.468;2022-12-18T16:53:46;15.00;;;4.45;;
22449;SDS011;11392;57.390;-2.468;2022-12-18T16:56:13;7.70;;;2.70;;
22449;SDS011;11392;57.390;-2.468;2022-12-18T16:58:40;8.70;;;2.50;;
22449;SDS011;11392;57.390;-2.468;2022-12-18T17:01:08;10.23;;;3.17;;
22449;SDS011;11392;57.390;-2.468;2022-12-18T17:03:38;12.10;;;3.08;;